• Join FlightAware (Why Join?)
  • Login
  • US Flag 
08:48AM EDT


 

Airport Tracker/Info


-or-


 

Live Flight TrackerFlight Track Log ✈ N75147 ✈ 03-May-2012 ✈ KDTS - KOCF

Flight Track Log - Related Links

Times and Time Zones

All times are in EDT time to prevent confusion due to time zone crossing. See the N75147 flight status page for this flight to view local times or setup timezone preferences in your user account.

Time Position Orientation Groundspeed Altitude Reporting Facility
EDT Latitude Longitude Course Direction KTS MPH feet Rate Location/Type
01:06PM 30.3828 -86.4036 102° East  Level FlightAware Approximate
01:07PM 30.3760 -86.3730 102° East  Level FlightAware Approximate
01:08PM 30.3692 -86.3425 102° East  Level FlightAware Approximate
01:09PM 30.3624 -86.3120 102° East  Level FlightAware Approximate
01:10PM 30.3556 -86.2814 102° East  Level FlightAware Approximate
01:11PM 30.3485 -86.2510 102° East  Level FlightAware Approximate
01:12PM 30.3406 -86.2208 102° East  Level FlightAware Approximate
01:13PM 30.3328 -86.1906 102° East  Level FlightAware Approximate
01:14PM 30.3249 -86.1605 102° East  Level FlightAware Approximate
01:15PM 30.3170 -86.1303 102° East  Level FlightAware Approximate
01:16PM 30.3092 -86.1001 102° East  Level FlightAware Approximate
01:17PM 30.3013 -86.0700 102° East  Level FlightAware Approximate
01:18PM 30.2934 -86.0398 102° East  Level FlightAware Approximate
01:19PM 30.2855 -86.0097 102° East  Level FlightAware Approximate
01:20PM 30.2776 -85.9795 102° East  Level FlightAware Approximate
01:21PM 30.2697 -85.9494 102° East  Level FlightAware Approximate
01:22PM 30.2617 -85.9192 102° East  Level FlightAware Approximate
01:23PM 30.2537 -85.8887 102° East  Level FlightAware Approximate
01:24PM 30.2457 -85.8582 102° East  Level FlightAware Approximate
01:25PM 30.2376 -85.8277 101° East  Level FlightAware Approximate
01:26PM 30.2296 -85.7972 101° East  Level FlightAware Approximate
01:27PM 30.2215 -85.7668 101° East  Level FlightAware Approximate
01:28PM 30.2135 -85.7363 101° East  Level FlightAware Approximate
01:29PM 30.2054 -85.7058 101° East  Level FlightAware Approximate
01:30PM 30.1973 -85.6753 101° East  Level FlightAware Approximate
01:31PM 30.2035 -85.6444 102° East  Level FlightAware Approximate
01:32PM 30.1949 -85.6141 101° East  Level FlightAware Approximate
01:33PM 30.1863 -85.5838 101° East  Level FlightAware Approximate
01:34PM 30.1776 -85.5536 101° East  Level FlightAware Approximate
01:35PM 30.1690 -85.5233 101° East  Level FlightAware Approximate
01:36PM 30.1604 -85.4931 101° East  Level FlightAware Approximate
01:37PM 30.1517 -85.4628 101° East  Level FlightAware Approximate
01:38PM 30.1430 -85.4326 101° East  Level FlightAware Approximate
01:39PM 30.1344 -85.4024 101° East  Level FlightAware Approximate
01:40PM 30.1257 -85.3721 101° East  Level FlightAware Approximate
01:41PM 30.1170 -85.3419 101° East  Level FlightAware Approximate
01:42PM 30.1083 -85.3117 101° East  Level FlightAware Approximate
01:43PM 30.0996 -85.2815 100° East  Level FlightAware Approximate
01:44PM 30.0910 -85.2513 100° East  Level FlightAware Approximate
01:45PM 30.0822 -85.2211 100° East  Level FlightAware Approximate
01:46PM 30.0735 -85.1909 100° East  Level FlightAware Approximate
01:47PM 30.0648 -85.1607 100° East  Level FlightAware Approximate
01:48PM 30.0561 -85.1305 100° East  Level FlightAware Approximate
01:49PM 30.0473 -85.1003 100° East  Level FlightAware Approximate
01:50PM 30.0386 -85.0702 100° East  Level FlightAware Approximate
01:51PM 30.0299 -85.0400 99° East  Level FlightAware Approximate
01:52PM 30.0211 -85.0098 99° East  Level FlightAware Approximate
01:53PM 30.0123 -84.9797 99° East  Level FlightAware Approximate
01:54PM 30.0036 -84.9495 99° East  Level FlightAware Approximate
01:55PM 29.9948 -84.9194 99° East  Level FlightAware Approximate
01:56PM 29.9860 -84.8892 99° East  Level FlightAware Approximate
01:57PM 29.9772 -84.8591 98° East  Level FlightAware Approximate
01:58PM 29.9684 -84.8290 98° East  Level FlightAware Approximate
01:59PM 29.9596 -84.7988 98° East  Level FlightAware Approximate
02:00PM 29.9508 -84.7687 98° East  Level FlightAware Approximate
02:01PM 29.9420 -84.7386 98° East  Level FlightAware Approximate
02:02PM 29.9332 -84.7085 97° East  Level FlightAware Approximate
02:03PM 29.9243 -84.6784 97° East  Level FlightAware Approximate
02:04PM 29.9155 -84.6483 97° East  Level FlightAware Approximate
02:05PM 29.9067 -84.6182 97° East  Level FlightAware Approximate
02:06PM 29.8978 -84.5881 96° East  Level FlightAware Approximate
02:07PM 29.8890 -84.5580 96° East  Level FlightAware Approximate
02:08PM 29.8801 -84.5279 96° East  Level FlightAware Approximate
02:09PM 29.8712 -84.4979 95° East  Level FlightAware Approximate
02:10PM 29.8623 -84.4678 95° East  Level FlightAware Approximate
02:11PM 29.8535 -84.4377 95° East  Level FlightAware Approximate
02:12PM 29.8446 -84.4077 94° East  Level FlightAware Approximate
02:13PM 29.8358 -84.3779 94° East  Level FlightAware Approximate
02:14PM 29.8269 -84.3482 94° East  Level FlightAware Approximate
02:15PM 29.8181 -84.3184 93° East  Level FlightAware Approximate
02:16PM 29.8093 -84.2887 93° East  Level FlightAware Approximate
02:17PM 29.8004 -84.2589 92° East  Level FlightAware Approximate
02:18PM 29.7916 -84.2292 92° East  Level FlightAware Approximate
02:19PM 29.7827 -84.1994 91° East  Level FlightAware Approximate
02:20PM 29.7739 -84.1697 90° East  Level FlightAware Approximate
02:21PM 29.7650 -84.1400 90° East  Level FlightAware Approximate
02:22PM 29.7561 -84.1103 89° East  Level FlightAware Approximate
02:23PM 29.7473 -84.0806 88° East  Level FlightAware Approximate
02:24PM 29.7384 -84.0509 88° East  Level FlightAware Approximate
02:25PM 29.7295 -84.0212 87° East  Level FlightAware Approximate
02:26PM 29.7206 -83.9915 86° East  Level FlightAware Approximate
02:27PM 29.7117 -83.9618 85° East  Level FlightAware Approximate
02:28PM 29.7028 -83.9321 84° East  Level FlightAware Approximate
02:29PM 29.6938 -83.9024 82° East  Level FlightAware Approximate
02:30PM 29.6849 -83.8727 81° East  Level FlightAware Approximate
02:31PM 29.6760 -83.8431 80° East  Level FlightAware Approximate
02:32PM 29.6670 -83.8134 78° East  Level FlightAware Approximate
02:33PM 29.6581 -83.7838 76° East  Level FlightAware Approximate
02:34PM 29.6491 -83.7541 74° East  Level FlightAware Approximate
02:35PM 29.6402 -83.7244 72° East  Level FlightAware Approximate
02:36PM 29.6312 -83.6948 69° East  Level FlightAware Approximate
02:59PM 29.7647 -83.2825 130° Southeast 110 127 5,000  Level Jacksonville Center
03:00PM 29.7442 -83.2539 121° Southeast 110 127 5,000  Level Jacksonville Center
03:01PM 29.7317 -83.2297 135° Southeast 97 112 5,100  Climbing Jacksonville Center
03:02PM 29.7150 -83.2106 130° Southeast 97 112 5,100  Level Jacksonville Center
03:03PM 29.6942 -83.1819 132° Southeast 97 112 5,100  Level Jacksonville Center
03:04PM 29.6775 -83.1603 129° Southeast 100 115 5,100  Level Jacksonville Center
03:05PM 29.6586 -83.1339 129° Southeast 101 116 5,100 -60 Level Jacksonville Center
03:06PM 29.6400 -83.1075 124° Southeast 102 117 5,000 -60 Descending Jacksonville Center
03:07PM 29.6275 -83.0861 132° Southeast 102 117 5,000  Level Jacksonville Center
03:08PM 29.6089 -83.0622 130° Southeast 102 117 5,000  Level Jacksonville Center
03:09PM 29.5881 -83.0333 122° Southeast 108 124 5,000  Level Jacksonville Center
03:10PM 29.5711 -83.0025 112° Southeast 102 117 5,100  Climbing Jacksonville Center
03:11PM 29.5608 -82.9736 121° Southeast 103 119 5,000  Descending Jacksonville Center
03:12PM 29.5419 -82.9381 127° Southeast 107 123 5,100  Climbing Jacksonville Center
03:13PM 29.5294 -82.9189 123° Southeast 98 113 5,000  Descending Jacksonville Center
03:14PM 29.5108 -82.8856 121° Southeast 102 117 5,100  Climbing Jacksonville Center
03:15PM 29.4961 -82.8569 123° Southeast 105 121 5,100 -60 Level Jacksonville Center
03:16PM 29.4814 -82.8306 120° Southeast 99 114 5,000 -180 Descending Jacksonville Center
03:17PM 29.4647 -82.7972 115° Southeast 103 119 4,800 -480 Descending Jacksonville Center
03:18PM 29.4522 -82.7661 121° Southeast 105 121 4,100 -420 Descending Jacksonville Center
03:19PM 29.4375 -82.7375 124° Southeast 108 124 4,000 -420 Descending Jacksonville Center
03:20PM 29.4208 -82.7089 123° Southeast 106 122 3,400 -540 Descending Jacksonville Center
03:21PM 29.4061 -82.6828 119° Southeast 105 121 3,000 -180 Descending Jacksonville Center
03:22PM 29.3936 -82.6567 119° Southeast 96 110 3,100  Climbing Jacksonville Center
03:23PM 29.3811 -82.6306 122° Southeast 95 109 3,100  Level Jacksonville Center
03:24PM 29.3642 -82.5994 122° Southeast 102 117 3,100  Level Jacksonville Center
03:25PM 29.3497 -82.5733 119° Southeast 105 121 3,100  Level Jacksonville Center
03:26PM 29.3350 -82.5425 123° Southeast 104 120 3,100  Level Jacksonville Center
03:27PM 29.3203 -82.5161 121° Southeast 93 107 3,100  Level Jacksonville Center
03:29PM 29.3056 -82.4878 121° Southeast 101 116 3,100 -180 Level Jacksonville Center
03:30PM 29.2867 -82.4519 115° Southeast 113 130 2,800 -480 Descending Jacksonville Center
03:31PM 29.2739 -82.4211 126° Southeast 111 128 2,200 -480 Descending Jacksonville Center
03:32PM 29.2592 -82.3975 107° East 102 117 1,900 -120 Descending Jacksonville Center
03:33PM 29.2508 -82.3667 111° Southeast 98 113 2,000 60 Climbing Jacksonville Center
03:34PM 29.2403 -82.3356 123° Southeast 95 109 2,100  Climbing Jacksonville Center
03:35PM 29.2256 -82.3097 113° Southeast 99 114 2,000 -240 Descending Jacksonville Center
03:36PM 29.2150 -82.2811 99° East 101 116 1,700 -300 Descending Jacksonville Center
03:37PM 29.2106 -82.2478 119° Southeast 89 102 1,400 -480 Descending Jacksonville Center
03:38PM 29.2000 -82.2264 270° West 91 105 700 -720 Descending Jacksonville Center
03:46PM 29.1997 -82.5388 90° East  Level FlightAware Approximate
03:47PM 29.1998 -82.4998 90° East  Level FlightAware Approximate
03:48PM 29.1999 -82.4607 90° East  Level FlightAware Approximate
03:49PM 29.1999 -82.4217 90° East  Level FlightAware Approximate
03:50PM 29.1999 -82.3826 90° East  Level FlightAware Approximate
03:51PM 29.2000 -82.3436 90° East  Level FlightAware Approximate
03:52PM 29.2000 -82.3045 112° Southeast  Level FlightAware Approximate
03:53PM 29.1874 -82.2686 112° Southeast  Level FlightAware Approximate
03:54PM 29.1748 -82.2323 121° Southeast  Level Estimated
03:55PM 29.1667 -82.2167 309° West  Level FlightAware Approximate
03:56PM 29.1880 -82.2471 309° West  Level Estimated